La Grande Rivière Airport
CYGL : now visible

Airfield :











YOU CAN JOIN US ON...

 
LOGIN :

Register | Disclaimer

   EN    FR    IT 

 









Legend :    VFR   Marginal VFR   IFR   Intensive IFR   Very Intensive IFR
Visi :
Ceiling :
>= 8 km
>= 3000ft
5 to 8 km
1000 to 3000 ft
1500m to 5 km
500 to 1000 ft
800 to 1500m
200 to 500 ft
< 800m
< 200 ft
Symbols :   Thunderstorms  Fog  Heavy snow  Heavy precipitations  Wind > 20 kt






- Airport Elevation : 639 ft
- IATA code : YGL


CYGL - La Grande Rivière

CURRENT METAR :
  • 051700Z 26003KT 15SM FEW040 SCT160 OVC240 M08/M10 A3016 RMK SC1AC3CI5 SC TR SLP234

EXPIRED METARs :
  • 051600Z 26004KT 15SM FEW030 SCT160 OVC240 M09/M12 A3017 RMK SC1AC2CI5 SLP236
  • 051500Z 26005KT 15SM SCT028 SCT180 OVC240 M11/M13 A3017 RMK SC3AC1CI4 SLP236
  • 051400Z 24005KT 15SM FEW004 BKN068 BKN240 M12/M14 A3016 RMK SF1AC4CI2 SLP234
  • 051300Z 24005KT 15SM SCT004 BKN067 M11/M13 A3016 RMK SF3AC4 SLP233

TAF TAF CYGL
Valid from the 05 at 12:00 until the 06 at 12:00 UTC


051140Z 0512/0612 23005KT P6SM FEW005 OVC060
TEMPO 0512/0612 5SM -SN BKN005 OVC060
PROB30 0600/0612 2SM -SN BR BKN003 RMK NXT FCST BY 051800Z
CZUL FIR / North America



MET'MAP, your aeronautical weather chart ! - Copyright ORBIFLY December 2007 - Disclaimer

ORBIFLY MET'MAP TEAM :

Programming & Development : Alexandra Zaïnal
Original concept : Baudouin d'Aumeries
Technical & hardware support : Manuel Goepfert
Assistance : Marc-Olivier Méhu




SOURCES & CREDITS :

   NOAA       Earth
Advisory